sensor_id;sensor_type;location;lat;lon;timestamp;P1;durP1;ratioP1;P2;durP2;ratioP2
17510;SDS011;8873;48.818;9.422;2024-03-07T00:01:22;86.05;;;23.17;;
17510;SDS011;8873;48.818;9.422;2024-03-07T00:03:52;83.10;;;22.83;;
17510;SDS011;8873;48.818;9.422;2024-03-07T00:06:20;73.95;;;21.65;;
17510;SDS011;8873;48.818;9.422;2024-03-07T00:08:50;73.47;;;21.77;;
17510;SDS011;8873;48.818;9.422;2024-03-07T00:11:18;90.07;;;24.80;;
17510;SDS011;8873;48.818;9.422;2024-03-07T00:13:45;74.82;;;21.95;;
17510;SDS011;8873;48.818;9.422;2024-03-07T00:16:13;91.93;;;23.77;;
17510;SDS011;8873;48.818;9.422;2024-03-07T00:18:40;83.70;;;22.70;;
17510;SDS011;8873;48.818;9.422;2024-03-07T00:21:08;83.93;;;22.30;;
17510;SDS011;8873;48.818;9.422;2024-03-07T00:23:36;82.88;;;23.33;;
17510;SDS011;8873;48.818;9.422;2024-03-07T00:26:05;86.63;;;23.23;;
17510;SDS011;8873;48.818;9.422;2024-03-07T00:31:09;78.47;;;23.27;;
17510;SDS011;8873;48.818;9.422;2024-03-07T00:33:37;81.15;;;23.42;;
17510;SDS011;8873;48.818;9.422;2024-03-07T00:36:24;79.20;;;25.17;;
17510;SDS011;8873;48.818;9.422;2024-03-07T00:38:52;82.78;;;23.50;;
17510;SDS011;8873;48.818;9.422;2024-03-07T00:41:21;74.15;;;24.23;;
17510;SDS011;8873;48.818;9.422;2024-03-07T00:43:49;82.28;;;24.15;;
17510;SDS011;8873;48.818;9.422;2024-03-07T00:46:17;77.85;;;23.73;;
17510;SDS011;8873;48.818;9.422;2024-03-07T00:48:44;79.90;;;24.10;;
17510;SDS011;8873;48.818;9.422;2024-03-07T00:51:12;87.32;;;25.95;;
17510;SDS011;8873;48.818;9.422;2024-03-07T00:53:42;87.40;;;25.13;;
17510;SDS011;8873;48.818;9.422;2024-03-07T00:56:09;95.63;;;25.60;;
17510;SDS011;8873;48.818;9.422;2024-03-07T00:58:38;76.15;;;24.63;;
17510;SDS011;8873;48.818;9.422;2024-03-07T01:01:07;93.72;;;26.05;;
17510;SDS011;8873;48.818;9.422;2024-03-07T01:03:35;82.47;;;24.65;;
17510;SDS011;8873;48.818;9.422;2024-03-07T01:06:03;82.78;;;24.70;;
17510;SDS011;8873;48.818;9.422;2024-03-07T01:08:31;84.88;;;23.35;;
17510;SDS011;8873;48.818;9.422;2024-03-07T01:10:59;76.30;;;23.23;;
17510;SDS011;8873;48.818;9.422;2024-03-07T01:13:27;73.13;;;22.20;;
17510;SDS011;8873;48.818;9.422;2024-03-07T01:15:57;83.78;;;23.40;;
17510;SDS011;8873;48.818;9.422;2024-03-07T01:18:25;77.05;;;22.60;;
17510;SDS011;8873;48.818;9.422;2024-03-07T01:20:53;77.95;;;23.80;;
17510;SDS011;8873;48.818;9.422;2024-03-07T01:23:21;70.65;;;21.85;;
17510;SDS011;8873;48.818;9.422;2024-03-07T01:25:48;82.57;;;23.40;;
17510;SDS011;8873;48.818;9.422;2024-03-07T01:28:16;82.32;;;24.48;;
17510;SDS011;8873;48.818;9.422;2024-03-07T01:30:44;80.65;;;22.92;;
17510;SDS011;8873;48.818;9.422;2024-03-07T01:33:13;78.45;;;23.35;;
17510;SDS011;8873;48.818;9.422;2024-03-07T01:35:42;68.20;;;21.70;;
17510;SDS011;8873;48.818;9.422;2024-03-07T01:38:10;85.00;;;23.08;;
17510;SDS011;8873;48.818;9.422;2024-03-07T01:40:39;81.35;;;24.52;;
17510;SDS011;8873;48.818;9.422;2024-03-07T01:43:07;78.40;;;22.00;;
17510;SDS011;8873;48.818;9.422;2024-03-07T01:45:35;84.40;;;24.35;;
17510;SDS011;8873;48.818;9.422;2024-03-07T01:48:04;82.93;;;25.45;;
17510;SDS011;8873;48.818;9.422;2024-03-07T01:50:34;81.63;;;23.92;;
17510;SDS011;8873;48.818;9.422;2024-03-07T01:53:04;74.80;;;22.60;;
17510;SDS011;8873;48.818;9.422;2024-03-07T01:55:33;74.85;;;22.70;;
17510;SDS011;8873;48.818;9.422;2024-03-07T01:58:02;79.22;;;22.63;;
17510;SDS011;8873;48.818;9.422;2024-03-07T02:00:30;72.75;;;22.08;;
17510;SDS011;8873;48.818;9.422;2024-03-07T02:02:57;69.88;;;22.17;;
17510;SDS011;8873;48.818;9.422;2024-03-07T02:05:25;86.93;;;22.17;;
17510;SDS011;8873;48.818;9.422;2024-03-07T02:07:54;75.30;;;22.02;;
17510;SDS011;8873;48.818;9.422;2024-03-07T02:10:22;76.50;;;22.67;;
17510;SDS011;8873;48.818;9.422;2024-03-07T02:12:50;79.90;;;22.00;;
17510;SDS011;8873;48.818;9.422;2024-03-07T02:15:18;71.97;;;21.38;;
17510;SDS011;8873;48.818;9.422;2024-03-07T02:17:45;81.07;;;22.23;;
17510;SDS011;8873;48.818;9.422;2024-03-07T02:20:13;74.72;;;21.30;;
17510;SDS011;8873;48.818;9.422;2024-03-07T02:22:43;76.28;;;23.55;;
17510;SDS011;8873;48.818;9.422;2024-03-07T02:25:11;74.90;;;21.23;;
17510;SDS011;8873;48.818;9.422;2024-03-07T02:27:39;73.40;;;22.23;;
17510;SDS011;8873;48.818;9.422;2024-03-07T02:30:07;76.18;;;22.70;;
17510;SDS011;8873;48.818;9.422;2024-03-07T02:32:35;84.57;;;23.23;;
17510;SDS011;8873;48.818;9.422;2024-03-07T02:35:04;71.55;;;23.48;;
17510;SDS011;8873;48.818;9.422;2024-03-07T02:37:33;89.05;;;23.98;;
17510;SDS011;8873;48.818;9.422;2024-03-07T02:40:02;82.60;;;21.73;;
17510;SDS011;8873;48.818;9.422;2024-03-07T02:42:29;88.95;;;23.90;;
17510;SDS011;8873;48.818;9.422;2024-03-07T02:44:57;88.85;;;24.35;;
17510;SDS011;8873;48.818;9.422;2024-03-07T02:47:26;79.15;;;24.27;;
17510;SDS011;8873;48.818;9.422;2024-03-07T02:49:55;75.93;;;22.27;;
17510;SDS011;8873;48.818;9.422;2024-03-07T02:52:22;80.07;;;24.93;;
17510;SDS011;8873;48.818;9.422;2024-03-07T02:54:50;83.50;;;25.00;;
17510;SDS011;8873;48.818;9.422;2024-03-07T02:57:19;70.40;;;22.53;;
17510;SDS011;8873;48.818;9.422;2024-03-07T02:59:47;76.63;;;23.83;;
17510;SDS011;8873;48.818;9.422;2024-03-07T03:02:15;80.67;;;22.87;;
17510;SDS011;8873;48.818;9.422;2024-03-07T03:04:43;81.47;;;23.15;;
17510;SDS011;8873;48.818;9.422;2024-03-07T03:07:10;85.10;;;24.40;;
17510;SDS011;8873;48.818;9.422;2024-03-07T03:09:38;86.90;;;25.20;;
17510;SDS011;8873;48.818;9.422;2024-03-07T03:12:09;83.73;;;23.53;;
17510;SDS011;8873;48.818;9.422;2024-03-07T03:14:38;77.45;;;23.15;;
17510;SDS011;8873;48.818;9.422;2024-03-07T03:17:09;77.00;;;24.20;;
17510;SDS011;8873;48.818;9.422;2024-03-07T03:19:37;87.13;;;24.13;;
17510;SDS011;8873;48.818;9.422;2024-03-07T03:22:05;94.80;;;24.80;;
17510;SDS011;8873;48.818;9.422;2024-03-07T03:24:35;93.13;;;23.50;;
17510;SDS011;8873;48.818;9.422;2024-03-07T03:27:02;79.17;;;25.10;;
17510;SDS011;8873;48.818;9.422;2024-03-07T03:29:31;80.65;;;21.60;;
17510;SDS011;8873;48.818;9.422;2024-03-07T03:32:03;84.43;;;23.07;;
17510;SDS011;8873;48.818;9.422;2024-03-07T03:34:30;85.03;;;22.60;;
17510;SDS011;8873;48.818;9.422;2024-03-07T03:36:58;89.97;;;24.17;;
17510;SDS011;8873;48.818;9.422;2024-03-07T03:39:26;78.57;;;22.55;;
17510;SDS011;8873;48.818;9.422;2024-03-07T03:41:53;79.33;;;23.07;;
17510;SDS011;8873;48.818;9.422;2024-03-07T03:44:22;93.63;;;24.67;;
17510;SDS011;8873;48.818;9.422;2024-03-07T03:46:49;94.22;;;26.02;;
17510;SDS011;8873;48.818;9.422;2024-03-07T03:49:18;87.28;;;26.77;;
17510;SDS011;8873;48.818;9.422;2024-03-07T03:51:46;77.83;;;21.77;;
17510;SDS011;8873;48.818;9.422;2024-03-07T03:54:14;84.80;;;22.60;;
17510;SDS011;8873;48.818;9.422;2024-03-07T03:56:41;86.73;;;25.80;;
17510;SDS011;8873;48.818;9.422;2024-03-07T03:59:09;77.33;;;23.47;;
17510;SDS011;8873;48.818;9.422;2024-03-07T04:01:37;87.50;;;24.23;;
17510;SDS011;8873;48.818;9.422;2024-03-07T04:04:05;78.80;;;23.00;;
17510;SDS011;8873;48.818;9.422;2024-03-07T04:06:34;79.00;;;23.40;;
17510;SDS011;8873;48.818;9.422;2024-03-07T04:09:02;99.70;;;24.10;;
17510;SDS011;8873;48.818;9.422;2024-03-07T04:11:31;76.93;;;23.73;;
17510;SDS011;8873;48.818;9.422;2024-03-07T04:13:59;86.20;;;24.27;;
17510;SDS011;8873;48.818;9.422;2024-03-07T04:16:27;77.07;;;22.45;;
17510;SDS011;8873;48.818;9.422;2024-03-07T04:18:55;86.57;;;23.98;;
17510;SDS011;8873;48.818;9.422;2024-03-07T04:21:23;78.45;;;22.52;;
17510;SDS011;8873;48.818;9.422;2024-03-07T04:23:53;92.87;;;24.53;;
17510;SDS011;8873;48.818;9.422;2024-03-07T04:26:21;90.00;;;21.30;;
17510;SDS011;8873;48.818;9.422;2024-03-07T04:28:48;88.40;;;21.70;;
17510;SDS011;8873;48.818;9.422;2024-03-07T04:31:16;82.57;;;21.23;;
17510;SDS011;8873;48.818;9.422;2024-03-07T04:33:44;75.57;;;21.67;;
17510;SDS011;8873;48.818;9.422;2024-03-07T04:36:12;76.30;;;22.07;;
17510;SDS011;8873;48.818;9.422;2024-03-07T04:38:40;72.57;;;19.10;;
17510;SDS011;8873;48.818;9.422;2024-03-07T04:41:11;65.30;;;18.33;;
17510;SDS011;8873;48.818;9.422;2024-03-07T04:43:41;60.50;;;17.67;;
17510;SDS011;8873;48.818;9.422;2024-03-07T04:46:09;57.72;;;17.50;;
17510;SDS011;8873;48.818;9.422;2024-03-07T04:48:37;51.95;;;15.52;;
17510;SDS011;8873;48.818;9.422;2024-03-07T04:51:05;48.10;;;16.23;;
17510;SDS011;8873;48.818;9.422;2024-03-07T04:53:33;56.47;;;17.27;;
17510;SDS011;8873;48.818;9.422;2024-03-07T04:56:03;60.80;;;17.77;;
17510;SDS011;8873;48.818;9.422;2024-03-07T04:58:32;50.78;;;16.45;;
17510;SDS011;8873;48.818;9.422;2024-03-07T05:01:00;48.13;;;14.77;;
17510;SDS011;8873;48.818;9.422;2024-03-07T05:03:28;55.83;;;16.33;;
17510;SDS011;8873;48.818;9.422;2024-03-07T05:05:56;64.13;;;16.67;;
17510;SDS011;8873;48.818;9.422;2024-03-07T05:08:26;53.57;;;17.30;;
17510;SDS011;8873;48.818;9.422;2024-03-07T05:10:54;45.33;;;17.10;;
17510;SDS011;8873;48.818;9.422;2024-03-07T05:13:22;45.33;;;16.93;;
17510;SDS011;8873;48.818;9.422;2024-03-07T05:15:52;51.67;;;16.00;;
17510;SDS011;8873;48.818;9.422;2024-03-07T05:18:19;38.47;;;13.65;;
17510;SDS011;8873;48.818;9.422;2024-03-07T05:20:48;43.97;;;14.90;;
17510;SDS011;8873;48.818;9.422;2024-03-07T05:23:16;49.20;;;14.43;;
17510;SDS011;8873;48.818;9.422;2024-03-07T05:25:44;49.47;;;16.03;;
17510;SDS011;8873;48.818;9.422;2024-03-07T05:28:12;40.43;;;14.97;;
17510;SDS011;8873;48.818;9.422;2024-03-07T05:30:40;41.80;;;14.70;;
17510;SDS011;8873;48.818;9.422;2024-03-07T05:33:09;45.03;;;14.17;;
17510;SDS011;8873;48.818;9.422;2024-03-07T05:35:36;42.17;;;14.73;;
17510;SDS011;8873;48.818;9.422;2024-03-07T05:38:05;44.17;;;15.37;;
17510;SDS011;8873;48.818;9.422;2024-03-07T05:40:32;46.10;;;15.67;;
17510;SDS011;8873;48.818;9.422;2024-03-07T05:43:00;47.93;;;16.57;;
17510;SDS011;8873;48.818;9.422;2024-03-07T05:45:30;43.60;;;15.60;;
17510;SDS011;8873;48.818;9.422;2024-03-07T05:47:58;42.33;;;14.70;;
17510;SDS011;8873;48.818;9.422;2024-03-07T05:50:42;55.00;;;16.03;;
17510;SDS011;8873;48.818;9.422;2024-03-07T05:53:12;38.97;;;15.33;;
17510;SDS011;8873;48.818;9.422;2024-03-07T05:55:40;43.73;;;14.63;;
17510;SDS011;8873;48.818;9.422;2024-03-07T05:58:08;45.23;;;14.17;;
17510;SDS011;8873;48.818;9.422;2024-03-07T06:00:36;42.83;;;14.87;;
17510;SDS011;8873;48.818;9.422;2024-03-07T06:03:04;39.27;;;14.67;;
17510;SDS011;8873;48.818;9.422;2024-03-07T06:05:32;44.87;;;14.90;;
17510;SDS011;8873;48.818;9.422;2024-03-07T06:08:02;40.20;;;15.00;;
17510;SDS011;8873;48.818;9.422;2024-03-07T06:10:33;42.90;;;16.10;;
17510;SDS011;8873;48.818;9.422;2024-03-07T06:13:02;56.10;;;17.93;;
17510;SDS011;8873;48.818;9.422;2024-03-07T06:15:37;56.63;;;16.43;;
17510;SDS011;8873;48.818;9.422;2024-03-07T06:18:05;51.70;;;17.27;;
17510;SDS011;8873;48.818;9.422;2024-03-07T06:20:49;48.50;;;16.53;;
17510;SDS011;8873;48.818;9.422;2024-03-07T06:23:19;46.10;;;16.23;;
17510;SDS011;8873;48.818;9.422;2024-03-07T06:25:47;54.27;;;15.27;;
17510;SDS011;8873;48.818;9.422;2024-03-07T06:28:17;49.57;;;15.27;;
17510;SDS011;8873;48.818;9.422;2024-03-07T06:30:45;44.33;;;14.50;;
17510;SDS011;8873;48.818;9.422;2024-03-07T06:33:14;44.73;;;15.80;;
17510;SDS011;8873;48.818;9.422;2024-03-07T06:35:43;44.90;;;15.13;;
17510;SDS011;8873;48.818;9.422;2024-03-07T06:38:11;47.13;;;14.97;;
17510;SDS011;8873;48.818;9.422;2024-03-07T06:40:41;44.87;;;16.53;;
17510;SDS011;8873;48.818;9.422;2024-03-07T06:43:09;51.50;;;15.77;;
17510;SDS011;8873;48.818;9.422;2024-03-07T06:45:38;41.33;;;15.43;;
17510;SDS011;8873;48.818;9.422;2024-03-07T06:48:11;39.23;;;15.00;;
17510;SDS011;8873;48.818;9.422;2024-03-07T06:50:43;48.50;;;16.37;;
17510;SDS011;8873;48.818;9.422;2024-03-07T06:53:12;45.43;;;14.57;;
17510;SDS011;8873;48.818;9.422;2024-03-07T06:55:45;39.67;;;15.13;;
17510;SDS011;8873;48.818;9.422;2024-03-07T06:58:12;52.57;;;16.63;;
17510;SDS011;8873;48.818;9.422;2024-03-07T07:00:40;47.93;;;17.13;;
17510;SDS011;8873;48.818;9.422;2024-03-07T07:03:09;46.10;;;15.03;;
17510;SDS011;8873;48.818;9.422;2024-03-07T07:05:43;46.73;;;14.93;;
17510;SDS011;8873;48.818;9.422;2024-03-07T07:08:12;54.90;;;17.10;;
17510;SDS011;8873;48.818;9.422;2024-03-07T07:10:43;48.00;;;16.57;;
17510;SDS011;8873;48.818;9.422;2024-03-07T07:13:10;54.03;;;18.10;;
17510;SDS011;8873;48.818;9.422;2024-03-07T07:15:42;43.30;;;15.35;;
17510;SDS011;8873;48.818;9.422;2024-03-07T07:18:12;46.43;;;17.70;;
17510;SDS011;8873;48.818;9.422;2024-03-07T07:20:40;50.00;;;16.53;;
17510;SDS011;8873;48.818;9.422;2024-03-07T07:23:08;53.20;;;16.30;;
17510;SDS011;8873;48.818;9.422;2024-03-07T07:25:36;47.88;;;16.48;;
17510;SDS011;8873;48.818;9.422;2024-03-07T07:28:05;52.60;;;16.63;;
17510;SDS011;8873;48.818;9.422;2024-03-07T07:30:34;49.13;;;16.60;;
17510;SDS011;8873;48.818;9.422;2024-03-07T07:33:02;50.50;;;17.53;;
17510;SDS011;8873;48.818;9.422;2024-03-07T07:35:30;47.23;;;15.57;;
17510;SDS011;8873;48.818;9.422;2024-03-07T07:37:57;44.37;;;15.40;;
17510;SDS011;8873;48.818;9.422;2024-03-07T07:40:26;49.22;;;18.25;;
17510;SDS011;8873;48.818;9.422;2024-03-07T07:42:54;50.53;;;18.70;;
17510;SDS011;8873;48.818;9.422;2024-03-07T07:45:23;49.67;;;17.20;;
17510;SDS011;8873;48.818;9.422;2024-03-07T07:47:52;50.37;;;16.77;;
17510;SDS011;8873;48.818;9.422;2024-03-07T07:50:21;48.47;;;16.83;;
17510;SDS011;8873;48.818;9.422;2024-03-07T07:52:51;49.78;;;17.08;;
17510;SDS011;8873;48.818;9.422;2024-03-07T07:55:20;53.88;;;18.40;;
17510;SDS011;8873;48.818;9.422;2024-03-07T07:57:48;52.83;;;16.88;;
17510;SDS011;8873;48.818;9.422;2024-03-07T08:00:19;59.25;;;18.48;;
17510;SDS011;8873;48.818;9.422;2024-03-07T08:02:51;56.50;;;18.25;;
17510;SDS011;8873;48.818;9.422;2024-03-07T08:05:19;55.88;;;18.25;;
17510;SDS011;8873;48.818;9.422;2024-03-07T08:07:49;44.55;;;15.70;;
17510;SDS011;8873;48.818;9.422;2024-03-07T08:10:18;48.75;;;18.45;;
17510;SDS011;8873;48.818;9.422;2024-03-07T08:12:47;53.53;;;18.73;;
17510;SDS011;8873;48.818;9.422;2024-03-07T08:15:15;53.72;;;18.52;;
17510;SDS011;8873;48.818;9.422;2024-03-07T08:17:42;53.63;;;18.20;;
17510;SDS011;8873;48.818;9.422;2024-03-07T08:20:12;52.20;;;17.13;;
17510;SDS011;8873;48.818;9.422;2024-03-07T08:22:41;50.50;;;17.25;;
17510;SDS011;8873;48.818;9.422;2024-03-07T08:25:09;56.92;;;18.85;;
17510;SDS011;8873;48.818;9.422;2024-03-07T08:27:40;48.92;;;17.27;;
17510;SDS011;8873;48.818;9.422;2024-03-07T08:30:09;59.53;;;19.35;;
17510;SDS011;8873;48.818;9.422;2024-03-07T08:32:39;55.67;;;19.00;;
17510;SDS011;8873;48.818;9.422;2024-03-07T08:35:08;53.45;;;18.27;;
17510;SDS011;8873;48.818;9.422;2024-03-07T08:37:53;49.70;;;17.20;;
17510;SDS011;8873;48.818;9.422;2024-03-07T08:40:22;56.33;;;20.00;;
17510;SDS011;8873;48.818;9.422;2024-03-07T08:42:54;53.00;;;18.15;;
17510;SDS011;8873;48.818;9.422;2024-03-07T08:45:24;52.38;;;18.05;;
17510;SDS011;8873;48.818;9.422;2024-03-07T08:47:56;54.33;;;18.55;;
17510;SDS011;8873;48.818;9.422;2024-03-07T08:50:26;54.28;;;17.70;;
17510;SDS011;8873;48.818;9.422;2024-03-07T08:52:56;62.03;;;20.38;;
17510;SDS011;8873;48.818;9.422;2024-03-07T08:55:24;60.72;;;18.27;;
17510;SDS011;8873;48.818;9.422;2024-03-07T08:57:52;54.25;;;18.60;;
17510;SDS011;8873;48.818;9.422;2024-03-07T09:00:20;61.03;;;21.05;;
17510;SDS011;8873;48.818;9.422;2024-03-07T09:02:52;56.88;;;17.95;;
17510;SDS011;8873;48.818;9.422;2024-03-07T09:05:21;58.17;;;20.33;;
17510;SDS011;8873;48.818;9.422;2024-03-07T09:07:50;59.88;;;21.20;;
17510;SDS011;8873;48.818;9.422;2024-03-07T09:10:19;60.35;;;20.10;;
17510;SDS011;8873;48.818;9.422;2024-03-07T09:12:49;54.58;;;18.70;;
17510;SDS011;8873;48.818;9.422;2024-03-07T09:15:18;59.78;;;19.33;;
17510;SDS011;8873;48.818;9.422;2024-03-07T09:17:48;66.93;;;21.02;;
17510;SDS011;8873;48.818;9.422;2024-03-07T09:20:16;74.30;;;20.40;;
17510;SDS011;8873;48.818;9.422;2024-03-07T09:22:45;72.28;;;20.55;;
17510;SDS011;8873;48.818;9.422;2024-03-07T09:25:15;60.25;;;19.38;;
17510;SDS011;8873;48.818;9.422;2024-03-07T09:27:47;67.35;;;21.63;;
17510;SDS011;8873;48.818;9.422;2024-03-07T09:30:15;59.28;;;19.92;;
17510;SDS011;8873;48.818;9.422;2024-03-07T09:32:48;65.40;;;20.90;;
17510;SDS011;8873;48.818;9.422;2024-03-07T09:35:16;59.15;;;20.42;;
17510;SDS011;8873;48.818;9.422;2024-03-07T09:37:44;55.20;;;20.05;;
17510;SDS011;8873;48.818;9.422;2024-03-07T09:40:13;53.25;;;19.48;;
17510;SDS011;8873;48.818;9.422;2024-03-07T09:42:42;39.88;;;15.57;;
17510;SDS011;8873;48.818;9.422;2024-03-07T09:45:16;38.08;;;14.50;;
17510;SDS011;8873;48.818;9.422;2024-03-07T09:47:45;41.92;;;16.70;;
17510;SDS011;8873;48.818;9.422;2024-03-07T09:50:15;38.28;;;15.43;;
17510;SDS011;8873;48.818;9.422;2024-03-07T09:52:49;38.40;;;15.00;;
17510;SDS011;8873;48.818;9.422;2024-03-07T09:55:18;42.67;;;16.48;;
17510;SDS011;8873;48.818;9.422;2024-03-07T09:57:47;34.30;;;13.35;;
17510;SDS011;8873;48.818;9.422;2024-03-07T10:00:17;39.72;;;15.38;;
17510;SDS011;8873;48.818;9.422;2024-03-07T10:02:54;36.10;;;14.55;;
17510;SDS011;8873;48.818;9.422;2024-03-07T10:05:28;35.72;;;15.23;;
17510;SDS011;8873;48.818;9.422;2024-03-07T10:07:57;33.47;;;13.60;;
17510;SDS011;8873;48.818;9.422;2024-03-07T10:10:26;38.05;;;14.40;;
17510;SDS011;8873;48.818;9.422;2024-03-07T10:12:59;35.75;;;14.10;;
17510;SDS011;8873;48.818;9.422;2024-03-07T10:15:29;34.38;;;14.32;;
17510;SDS011;8873;48.818;9.422;2024-03-07T10:17:57;34.25;;;14.20;;
17510;SDS011;8873;48.818;9.422;2024-03-07T10:20:28;35.45;;;14.38;;
17510;SDS011;8873;48.818;9.422;2024-03-07T10:22:56;41.20;;;13.77;;
17510;SDS011;8873;48.818;9.422;2024-03-07T10:25:24;40.47;;;14.77;;
17510;SDS011;8873;48.818;9.422;2024-03-07T10:27:55;30.77;;;13.35;;
17510;SDS011;8873;48.818;9.422;2024-03-07T10:30:25;35.83;;;14.18;;
17510;SDS011;8873;48.818;9.422;2024-03-07T10:32:56;35.58;;;14.30;;
17510;SDS011;8873;48.818;9.422;2024-03-07T10:35:26;34.00;;;13.52;;
17510;SDS011;8873;48.818;9.422;2024-03-07T10:37:56;30.85;;;14.15;;
17510;SDS011;8873;48.818;9.422;2024-03-07T10:40:27;34.83;;;14.32;;
17510;SDS011;8873;48.818;9.422;2024-03-07T10:42:56;33.38;;;12.63;;
17510;SDS011;8873;48.818;9.422;2024-03-07T10:45:27;33.83;;;13.77;;
17510;SDS011;8873;48.818;9.422;2024-03-07T10:47:57;37.13;;;14.48;;
17510;SDS011;8873;48.818;9.422;2024-03-07T10:50:30;32.90;;;14.73;;
17510;SDS011;8873;48.818;9.422;2024-03-07T10:53:07;33.75;;;12.85;;
17510;SDS011;8873;48.818;9.422;2024-03-07T10:55:37;34.58;;;13.68;;
17510;SDS011;8873;48.818;9.422;2024-03-07T10:58:09;35.80;;;13.82;;
17510;SDS011;8873;48.818;9.422;2024-03-07T11:00:38;32.28;;;14.25;;
17510;SDS011;8873;48.818;9.422;2024-03-07T11:03:13;33.15;;;12.25;;
17510;SDS011;8873;48.818;9.422;2024-03-07T11:05:44;32.92;;;12.63;;
17510;SDS011;8873;48.818;9.422;2024-03-07T11:08:14;33.33;;;13.40;;
17510;SDS011;8873;48.818;9.422;2024-03-07T11:10:42;33.85;;;14.45;;
17510;SDS011;8873;48.818;9.422;2024-03-07T11:13:13;33.33;;;13.68;;
17510;SDS011;8873;48.818;9.422;2024-03-07T11:15:44;38.88;;;14.98;;
17510;SDS011;8873;48.818;9.422;2024-03-07T11:18:15;29.92;;;14.35;;
17510;SDS011;8873;48.818;9.422;2024-03-07T11:20:44;32.80;;;14.77;;
17510;SDS011;8873;48.818;9.422;2024-03-07T11:26:08;31.85;;;13.80;;
17510;SDS011;8873;48.818;9.422;2024-03-07T11:28:37;37.03;;;15.00;;
17510;SDS011;8873;48.818;9.422;2024-03-07T11:36:44;30.98;;;14.25;;
17510;SDS011;8873;48.818;9.422;2024-03-07T11:41:57;30.33;;;14.40;;
17510;SDS011;8873;48.818;9.422;2024-03-07T11:44:25;33.92;;;13.02;;
17510;SDS011;8873;48.818;9.422;2024-03-07T11:46:53;36.28;;;15.02;;
17510;SDS011;8873;48.818;9.422;2024-03-07T11:49:21;36.83;;;14.60;;
17510;SDS011;8873;48.818;9.422;2024-03-07T11:51:52;33.33;;;13.68;;
17510;SDS011;8873;48.818;9.422;2024-03-07T11:57:52;33.35;;;14.45;;
17510;SDS011;8873;48.818;9.422;2024-03-07T12:00:20;32.72;;;13.60;;
17510;SDS011;8873;48.818;9.422;2024-03-07T12:02:53;29.55;;;13.85;;
17510;SDS011;8873;48.818;9.422;2024-03-07T12:05:21;34.00;;;14.77;;
17510;SDS011;8873;48.818;9.422;2024-03-07T12:07:50;33.88;;;13.80;;
17510;SDS011;8873;48.818;9.422;2024-03-07T12:10:18;30.95;;;14.40;;
17510;SDS011;8873;48.818;9.422;2024-03-07T12:12:51;35.80;;;14.43;;
17510;SDS011;8873;48.818;9.422;2024-03-07T12:15:23;31.85;;;15.45;;
17510;SDS011;8873;48.818;9.422;2024-03-07T12:17:51;29.10;;;13.93;;
17510;SDS011;8873;48.818;9.422;2024-03-07T12:20:20;31.27;;;13.98;;
17510;SDS011;8873;48.818;9.422;2024-03-07T12:22:59;30.35;;;13.38;;
17510;SDS011;8873;48.818;9.422;2024-03-07T12:25:29;26.15;;;12.70;;
17510;SDS011;8873;48.818;9.422;2024-03-07T12:31:03;28.88;;;13.25;;
17510;SDS011;8873;48.818;9.422;2024-03-07T12:33:42;32.63;;;13.73;;
17510;SDS011;8873;48.818;9.422;2024-03-07T12:36:16;27.48;;;12.90;;
17510;SDS011;8873;48.818;9.422;2024-03-07T12:38:55;28.20;;;12.75;;
17510;SDS011;8873;48.818;9.422;2024-03-07T12:41:23;29.83;;;13.38;;
17510;SDS011;8873;48.818;9.422;2024-03-07T12:43:51;29.02;;;12.50;;
17510;SDS011;8873;48.818;9.422;2024-03-07T12:46:22;31.85;;;13.68;;
17510;SDS011;8873;48.818;9.422;2024-03-07T12:48:51;28.65;;;13.73;;
17510;SDS011;8873;48.818;9.422;2024-03-07T12:51:24;29.67;;;13.23;;
17510;SDS011;8873;48.818;9.422;2024-03-07T12:53:56;29.17;;;14.27;;
17510;SDS011;8873;48.818;9.422;2024-03-07T12:56:24;35.65;;;14.55;;
17510;SDS011;8873;48.818;9.422;2024-03-07T12:58:53;34.85;;;14.18;;
17510;SDS011;8873;48.818;9.422;2024-03-07T13:01:23;33.53;;;13.77;;
17510;SDS011;8873;48.818;9.422;2024-03-07T13:03:51;32.22;;;13.70;;
17510;SDS011;8873;48.818;9.422;2024-03-07T13:06:19;31.70;;;14.75;;
17510;SDS011;8873;48.818;9.422;2024-03-07T13:08:53;32.95;;;14.50;;
17510;SDS011;8873;48.818;9.422;2024-03-07T13:11:28;33.45;;;14.95;;
17510;SDS011;8873;48.818;9.422;2024-03-07T13:13:58;30.45;;;15.00;;
17510;SDS011;8873;48.818;9.422;2024-03-07T13:16:27;32.40;;;15.00;;
17510;SDS011;8873;48.818;9.422;2024-03-07T13:18:58;37.28;;;14.32;;
17510;SDS011;8873;48.818;9.422;2024-03-07T13:21:26;32.75;;;14.70;;
17510;SDS011;8873;48.818;9.422;2024-03-07T13:23:57;38.03;;;14.50;;
17510;SDS011;8873;48.818;9.422;2024-03-07T13:26:25;39.30;;;15.63;;
17510;SDS011;8873;48.818;9.422;2024-03-07T13:28:58;34.17;;;14.77;;
17510;SDS011;8873;48.818;9.422;2024-03-07T13:31:29;30.77;;;13.82;;
17510;SDS011;8873;48.818;9.422;2024-03-07T13:33:57;38.25;;;14.65;;
17510;SDS011;8873;48.818;9.422;2024-03-07T13:36:28;29.35;;;13.63;;
17510;SDS011;8873;48.818;9.422;2024-03-07T13:38:55;29.63;;;12.98;;
17510;SDS011;8873;48.818;9.422;2024-03-07T13:41:24;37.45;;;14.82;;
17510;SDS011;8873;48.818;9.422;2024-03-07T13:43:55;34.20;;;14.45;;
17510;SDS011;8873;48.818;9.422;2024-03-07T13:46:24;27.88;;;13.57;;
17510;SDS011;8873;48.818;9.422;2024-03-07T13:48:52;33.95;;;13.73;;
17510;SDS011;8873;48.818;9.422;2024-03-07T13:51:20;35.55;;;13.40;;
17510;SDS011;8873;48.818;9.422;2024-03-07T13:53:52;27.98;;;11.88;;
17510;SDS011;8873;48.818;9.422;2024-03-07T13:56:40;32.08;;;13.00;;
17510;SDS011;8873;48.818;9.422;2024-03-07T13:59:31;29.25;;;13.07;;
17510;SDS011;8873;48.818;9.422;2024-03-07T14:02:08;28.70;;;13.75;;
17510;SDS011;8873;48.818;9.422;2024-03-07T14:04:44;31.67;;;13.30;;
17510;SDS011;8873;48.818;9.422;2024-03-07T14:07:28;32.58;;;13.32;;
17510;SDS011;8873;48.818;9.422;2024-03-07T14:10:06;32.60;;;13.60;;
17510;SDS011;8873;48.818;9.422;2024-03-07T14:12:54;33.65;;;13.88;;
17510;SDS011;8873;48.818;9.422;2024-03-07T14:21:03;29.92;;;13.48;;
17510;SDS011;8873;48.818;9.422;2024-03-07T14:23:42;30.23;;;13.23;;
17510;SDS011;8873;48.818;9.422;2024-03-07T14:26:39;31.58;;;12.02;;
17510;SDS011;8873;48.818;9.422;2024-03-07T14:29:17;29.50;;;11.95;;
17510;SDS011;8873;48.818;9.422;2024-03-07T14:31:48;26.95;;;12.02;;
17510;SDS011;8873;48.818;9.422;2024-03-07T14:34:19;30.15;;;13.13;;
17510;SDS011;8873;48.818;9.422;2024-03-07T14:36:52;26.92;;;12.00;;
17510;SDS011;8873;48.818;9.422;2024-03-07T14:39:20;30.90;;;13.63;;
17510;SDS011;8873;48.818;9.422;2024-03-07T14:41:52;34.08;;;12.88;;
17510;SDS011;8873;48.818;9.422;2024-03-07T14:44:20;26.83;;;12.32;;
17510;SDS011;8873;48.818;9.422;2024-03-07T14:46:48;34.95;;;12.23;;
17510;SDS011;8873;48.818;9.422;2024-03-07T14:49:21;25.13;;;12.10;;
17510;SDS011;8873;48.818;9.422;2024-03-07T14:51:49;28.27;;;11.75;;
17510;SDS011;8873;48.818;9.422;2024-03-07T14:54:29;27.77;;;12.23;;
17510;SDS011;8873;48.818;9.422;2024-03-07T14:56:57;29.27;;;11.77;;
17510;SDS011;8873;48.818;9.422;2024-03-07T14:59:24;28.58;;;11.93;;
17510;SDS011;8873;48.818;9.422;2024-03-07T15:01:53;23.77;;;11.60;;
17510;SDS011;8873;48.818;9.422;2024-03-07T15:04:20;30.08;;;11.90;;
17510;SDS011;8873;48.818;9.422;2024-03-07T15:06:49;30.50;;;12.90;;
17510;SDS011;8873;48.818;9.422;2024-03-07T15:09:23;30.95;;;13.10;;
17510;SDS011;8873;48.818;9.422;2024-03-07T15:11:52;28.70;;;12.15;;
17510;SDS011;8873;48.818;9.422;2024-03-07T15:14:20;27.58;;;11.68;;